sensor_id;sensor_type;location;lat;lon;timestamp;P1;durP1;ratioP1;P2;durP2;ratioP2
34573;SDS011;20809;49.594;8.734;2023-09-08T00:00:29;7.68;;;5.07;;
34573;SDS011;20809;49.594;8.734;2023-09-08T00:03:31;12.02;;;6.22;;
34573;SDS011;20809;49.594;8.734;2023-09-08T00:09:37;5.40;;;4.90;;
34573;SDS011;20809;49.594;8.734;2023-09-08T00:12:38;7.55;;;5.93;;
34573;SDS011;20809;49.594;8.734;2023-09-08T00:15:40;6.50;;;5.53;;
34573;SDS011;20809;49.594;8.734;2023-09-08T00:18:42;7.10;;;6.30;;
34573;SDS011;20809;49.594;8.734;2023-09-08T00:21:44;6.30;;;4.97;;
34573;SDS011;20809;49.594;8.734;2023-09-08T00:24:46;6.80;;;4.85;;
34573;SDS011;20809;49.594;8.734;2023-09-08T00:27:47;5.95;;;5.40;;
34573;SDS011;20809;49.594;8.734;2023-09-08T00:30:49;5.82;;;5.22;;
34573;SDS011;20809;49.594;8.734;2023-09-08T00:33:51;6.68;;;4.85;;
34573;SDS011;20809;49.594;8.734;2023-09-08T00:36:52;7.57;;;5.13;;
34573;SDS011;20809;49.594;8.734;2023-09-08T00:39:55;6.03;;;5.22;;
34573;SDS011;20809;49.594;8.734;2023-09-08T00:42:56;6.20;;;5.60;;
34573;SDS011;20809;49.594;8.734;2023-09-08T00:46:01;5.70;;;5.20;;
34573;SDS011;20809;49.594;8.734;2023-09-08T00:49:03;6.70;;;4.93;;
34573;SDS011;20809;49.594;8.734;2023-09-08T00:52:06;6.03;;;5.15;;
34573;SDS011;20809;49.594;8.734;2023-09-08T00:59:08;7.55;;;4.90;;
34573;SDS011;20809;49.594;8.734;2023-09-08T01:02:11;6.22;;;5.13;;
34573;SDS011;20809;49.594;8.734;2023-09-08T01:05:12;6.72;;;4.70;;
34573;SDS011;20809;49.594;8.734;2023-09-08T01:08:15;4.88;;;4.45;;
34573;SDS011;20809;49.594;8.734;2023-09-08T01:11:18;6.07;;;5.47;;
34573;SDS011;20809;49.594;8.734;2023-09-08T01:14:21;6.22;;;4.90;;
34573;SDS011;20809;49.594;8.734;2023-09-08T01:17:23;6.20;;;5.43;;
34573;SDS011;20809;49.594;8.734;2023-09-08T01:20:30;8.02;;;5.03;;
34573;SDS011;20809;49.594;8.734;2023-09-08T01:26:57;4.95;;;4.45;;
34573;SDS011;20809;49.594;8.734;2023-09-08T01:30:01;6.38;;;5.50;;
34573;SDS011;20809;49.594;8.734;2023-09-08T01:33:08;7.72;;;5.47;;
34573;SDS011;20809;49.594;8.734;2023-09-08T01:36:10;5.35;;;4.85;;
34573;SDS011;20809;49.594;8.734;2023-09-08T01:39:12;11.90;;;5.00;;
34573;SDS011;20809;49.594;8.734;2023-09-08T01:42:23;12.90;;;5.85;;
34573;SDS011;20809;49.594;8.734;2023-09-08T01:45:28;5.97;;;4.75;;
34573;SDS011;20809;49.594;8.734;2023-09-08T01:48:29;5.10;;;4.60;;
34573;SDS011;20809;49.594;8.734;2023-09-08T01:51:31;5.72;;;4.93;;
34573;SDS011;20809;49.594;8.734;2023-09-08T01:54:33;4.80;;;4.38;;
34573;SDS011;20809;49.594;8.734;2023-09-08T01:57:35;7.05;;;4.75;;
34573;SDS011;20809;49.594;8.734;2023-09-08T02:00:36;6.18;;;4.68;;
34573;SDS011;20809;49.594;8.734;2023-09-08T02:03:38;7.43;;;5.57;;
34573;SDS011;20809;49.594;8.734;2023-09-08T02:06:40;8.65;;;6.35;;
34573;SDS011;20809;49.594;8.734;2023-09-08T02:09:42;8.50;;;6.35;;
34573;SDS011;20809;49.594;8.734;2023-09-08T02:12:43;7.80;;;5.65;;
34573;SDS011;20809;49.594;8.734;2023-09-08T02:15:45;6.35;;;4.78;;
34573;SDS011;20809;49.594;8.734;2023-09-08T02:18:47;7.25;;;4.97;;
34573;SDS011;20809;49.594;8.734;2023-09-08T02:21:52;4.95;;;4.53;;
34573;SDS011;20809;49.594;8.734;2023-09-08T02:24:54;5.95;;;5.35;;
34573;SDS011;20809;49.594;8.734;2023-09-08T02:27:57;4.70;;;4.30;;
34573;SDS011;20809;49.594;8.734;2023-09-08T02:30:58;5.53;;;5.03;;
34573;SDS011;20809;49.594;8.734;2023-09-08T02:34:00;6.78;;;4.85;;
34573;SDS011;20809;49.594;8.734;2023-09-08T02:37:03;5.70;;;5.10;;
34573;SDS011;20809;49.594;8.734;2023-09-08T02:40:05;6.35;;;4.95;;
34573;SDS011;20809;49.594;8.734;2023-09-08T02:43:07;6.15;;;5.40;;
34573;SDS011;20809;49.594;8.734;2023-09-08T02:46:09;5.45;;;4.95;;
34573;SDS011;20809;49.594;8.734;2023-09-08T02:49:11;5.88;;;4.30;;
34573;SDS011;20809;49.594;8.734;2023-09-08T02:52:13;5.88;;;4.80;;
34573;SDS011;20809;49.594;8.734;2023-09-08T02:55:15;7.03;;;5.00;;
34573;SDS011;20809;49.594;8.734;2023-09-08T02:58:16;5.65;;;5.10;;
34573;SDS011;20809;49.594;8.734;2023-09-08T03:01:18;5.30;;;4.80;;
34573;SDS011;20809;49.594;8.734;2023-09-08T03:04:23;7.93;;;4.88;;
34573;SDS011;20809;49.594;8.734;2023-09-08T03:07:25;6.43;;;4.90;;
34573;SDS011;20809;49.594;8.734;2023-09-08T03:10:27;7.70;;;5.40;;
34573;SDS011;20809;49.594;8.734;2023-09-08T03:13:29;7.53;;;5.00;;
34573;SDS011;20809;49.594;8.734;2023-09-08T03:16:36;5.28;;;4.78;;
34573;SDS011;20809;49.594;8.734;2023-09-08T03:19:38;6.05;;;5.13;;
34573;SDS011;20809;49.594;8.734;2023-09-08T03:22:40;7.32;;;5.28;;
34573;SDS011;20809;49.594;8.734;2023-09-08T03:25:44;4.80;;;4.40;;
34573;SDS011;20809;49.594;8.734;2023-09-08T03:28:46;8.77;;;4.60;;
34573;SDS011;20809;49.594;8.734;2023-09-08T03:31:48;6.40;;;5.25;;
34573;SDS011;20809;49.594;8.734;2023-09-08T03:34:50;8.88;;;5.10;;
34573;SDS011;20809;49.594;8.734;2023-09-08T03:37:51;6.53;;;4.85;;
34573;SDS011;20809;49.594;8.734;2023-09-08T03:40:53;5.20;;;4.70;;
34573;SDS011;20809;49.594;8.734;2023-09-08T03:43:54;7.78;;;5.35;;
34573;SDS011;20809;49.594;8.734;2023-09-08T03:46:57;5.65;;;5.15;;
34573;SDS011;20809;49.594;8.734;2023-09-08T03:52:59;7.43;;;5.60;;
34573;SDS011;20809;49.594;8.734;2023-09-08T03:56:00;5.90;;;5.22;;
34573;SDS011;20809;49.594;8.734;2023-09-08T03:59:02;6.75;;;5.63;;
34573;SDS011;20809;49.594;8.734;2023-09-08T04:02:04;5.55;;;5.05;;
34573;SDS011;20809;49.594;8.734;2023-09-08T04:05:09;6.60;;;5.25;;
34573;SDS011;20809;49.594;8.734;2023-09-08T04:08:11;5.95;;;5.22;;
34573;SDS011;20809;49.594;8.734;2023-09-08T04:11:12;5.65;;;5.10;;
34573;SDS011;20809;49.594;8.734;2023-09-08T04:14:17;5.70;;;5.10;;
34573;SDS011;20809;49.594;8.734;2023-09-08T04:17:19;8.95;;;5.20;;
34573;SDS011;20809;49.594;8.734;2023-09-08T04:20:20;7.10;;;6.20;;
34573;SDS011;20809;49.594;8.734;2023-09-08T04:23:21;7.13;;;5.88;;
34573;SDS011;20809;49.594;8.734;2023-09-08T04:29:24;6.90;;;5.43;;
34573;SDS011;20809;49.594;8.734;2023-09-08T04:32:25;7.82;;;5.43;;
34573;SDS011;20809;49.594;8.734;2023-09-08T04:35:27;6.10;;;5.07;;
34573;SDS011;20809;49.594;8.734;2023-09-08T04:38:32;8.02;;;5.68;;
34573;SDS011;20809;49.594;8.734;2023-09-08T04:41:33;7.93;;;6.03;;
34573;SDS011;20809;49.594;8.734;2023-09-08T04:44:36;5.72;;;5.22;;
34573;SDS011;20809;49.594;8.734;2023-09-08T04:47:37;6.82;;;5.45;;
34573;SDS011;20809;49.594;8.734;2023-09-08T04:50:39;5.63;;;5.13;;
34573;SDS011;20809;49.594;8.734;2023-09-08T04:53:40;10.18;;;5.03;;
34573;SDS011;20809;49.594;8.734;2023-09-08T04:56:41;7.25;;;5.90;;
34573;SDS011;20809;49.594;8.734;2023-09-08T04:59:42;6.30;;;5.68;;
34573;SDS011;20809;49.594;8.734;2023-09-08T05:02:43;5.32;;;4.82;;
34573;SDS011;20809;49.594;8.734;2023-09-08T05:08:45;5.83;;;4.53;;
34573;SDS011;20809;49.594;8.734;2023-09-08T05:11:46;4.90;;;4.43;;
34573;SDS011;20809;49.594;8.734;2023-09-08T05:14:47;9.23;;;4.88;;
34573;SDS011;20809;49.594;8.734;2023-09-08T05:17:48;7.00;;;4.75;;
34573;SDS011;20809;49.594;8.734;2023-09-08T05:20:48;6.80;;;5.15;;
34573;SDS011;20809;49.594;8.734;2023-09-08T05:23:49;6.25;;;4.90;;
34573;SDS011;20809;49.594;8.734;2023-09-08T05:26:50;7.55;;;5.05;;
34573;SDS011;20809;49.594;8.734;2023-09-08T05:29:50;9.40;;;5.07;;
34573;SDS011;20809;49.594;8.734;2023-09-08T05:32:51;8.20;;;5.50;;
34573;SDS011;20809;49.594;8.734;2023-09-08T05:35:52;9.07;;;5.17;;
34573;SDS011;20809;49.594;8.734;2023-09-08T05:38:52;5.82;;;5.00;;
34573;SDS011;20809;49.594;8.734;2023-09-08T05:41:53;7.55;;;5.70;;
34573;SDS011;20809;49.594;8.734;2023-09-08T05:44:54;8.77;;;5.80;;
34573;SDS011;20809;49.594;8.734;2023-09-08T05:47:55;7.20;;;5.70;;
34573;SDS011;20809;49.594;8.734;2023-09-08T05:50:55;7.47;;;5.50;;
34573;SDS011;20809;49.594;8.734;2023-09-08T05:53:56;6.65;;;5.95;;
34573;SDS011;20809;49.594;8.734;2023-09-08T05:56:57;8.48;;;5.47;;
34573;SDS011;20809;49.594;8.734;2023-09-08T05:59:58;10.63;;;5.82;;
34573;SDS011;20809;49.594;8.734;2023-09-08T06:02:58;7.68;;;5.07;;
34573;SDS011;20809;49.594;8.734;2023-09-08T06:05:59;8.40;;;5.00;;
34573;SDS011;20809;49.594;8.734;2023-09-08T06:09:00;7.60;;;5.40;;
34573;SDS011;20809;49.594;8.734;2023-09-08T06:12:00;6.88;;;5.07;;
34573;SDS011;20809;49.594;8.734;2023-09-08T06:15:04;6.20;;;4.40;;
34573;SDS011;20809;49.594;8.734;2023-09-08T06:18:05;8.48;;;4.70;;
34573;SDS011;20809;49.594;8.734;2023-09-08T06:21:06;8.20;;;4.45;;
34573;SDS011;20809;49.594;8.734;2023-09-08T06:24:07;6.93;;;4.60;;
34573;SDS011;20809;49.594;8.734;2023-09-08T06:27:08;9.90;;;4.85;;
34573;SDS011;20809;49.594;8.734;2023-09-08T06:30:08;6.50;;;4.75;;
34573;SDS011;20809;49.594;8.734;2023-09-08T06:33:09;8.73;;;4.32;;
34573;SDS011;20809;49.594;8.734;2023-09-08T06:36:10;5.15;;;4.47;;
34573;SDS011;20809;49.594;8.734;2023-09-08T06:39:11;8.52;;;4.50;;
34573;SDS011;20809;49.594;8.734;2023-09-08T06:42:11;5.22;;;4.28;;
34573;SDS011;20809;49.594;8.734;2023-09-08T06:45:12;5.63;;;4.40;;
34573;SDS011;20809;49.594;8.734;2023-09-08T06:48:13;7.32;;;4.13;;
34573;SDS011;20809;49.594;8.734;2023-09-08T06:54:14;5.20;;;4.70;;
34573;SDS011;20809;49.594;8.734;2023-09-08T07:00:17;5.60;;;4.72;;
34573;SDS011;20809;49.594;8.734;2023-09-08T07:03:23;5.85;;;3.88;;
34573;SDS011;20809;49.594;8.734;2023-09-08T07:06:24;5.93;;;3.40;;
34573;SDS011;20809;49.594;8.734;2023-09-08T07:12:25;4.13;;;3.73;;
34573;SDS011;20809;49.594;8.734;2023-09-08T07:18:26;5.17;;;3.90;;
34573;SDS011;20809;49.594;8.734;2023-09-08T07:24:27;6.97;;;3.90;;
34573;SDS011;20809;49.594;8.734;2023-09-08T07:27:27;4.50;;;3.95;;
34573;SDS011;20809;49.594;8.734;2023-09-08T07:30:28;4.40;;;4.00;;
34573;SDS011;20809;49.594;8.734;2023-09-08T07:33:29;6.88;;;4.03;;
34573;SDS011;20809;49.594;8.734;2023-09-08T07:36:29;4.95;;;4.55;;
34573;SDS011;20809;49.594;8.734;2023-09-08T07:39:31;11.75;;;5.40;;
34573;SDS011;20809;49.594;8.734;2023-09-08T07:42:37;6.43;;;4.30;;
34573;SDS011;20809;49.594;8.734;2023-09-08T07:45:37;5.40;;;3.72;;
34573;SDS011;20809;49.594;8.734;2023-09-08T07:48:40;5.38;;;4.15;;
34573;SDS011;20809;49.594;8.734;2023-09-08T07:51:40;7.55;;;4.68;;
34573;SDS011;20809;49.594;8.734;2023-09-08T07:54:41;6.72;;;3.92;;
34573;SDS011;20809;49.594;8.734;2023-09-08T07:57:42;5.38;;;4.25;;
34573;SDS011;20809;49.594;8.734;2023-09-08T08:00:45;4.45;;;3.90;;
34573;SDS011;20809;49.594;8.734;2023-09-08T08:03:46;4.97;;;3.90;;
34573;SDS011;20809;49.594;8.734;2023-09-08T08:06:47;4.72;;;4.28;;
34573;SDS011;20809;49.594;8.734;2023-09-08T08:09:49;5.40;;;4.13;;
34573;SDS011;20809;49.594;8.734;2023-09-08T08:12:49;8.90;;;7.43;;
34573;SDS011;20809;49.594;8.734;2023-09-08T08:15:50;9.73;;;4.32;;
34573;SDS011;20809;49.594;8.734;2023-09-08T08:18:50;5.45;;;4.30;;
34573;SDS011;20809;49.594;8.734;2023-09-08T08:21:51;5.25;;;4.22;;
34573;SDS011;20809;49.594;8.734;2023-09-08T08:24:52;7.68;;;3.75;;
34573;SDS011;20809;49.594;8.734;2023-09-08T08:27:52;3.38;;;3.13;;
34573;SDS011;20809;49.594;8.734;2023-09-08T08:30:53;4.60;;;4.10;;
34573;SDS011;20809;49.594;8.734;2023-09-08T08:33:54;7.53;;;4.00;;
34573;SDS011;20809;49.594;8.734;2023-09-08T08:36:55;4.50;;;3.67;;
34573;SDS011;20809;49.594;8.734;2023-09-08T08:39:55;4.05;;;3.70;;
34573;SDS011;20809;49.594;8.734;2023-09-08T08:42:57;6.30;;;3.90;;
34573;SDS011;20809;49.594;8.734;2023-09-08T08:45:58;4.72;;;3.40;;
34573;SDS011;20809;49.594;8.734;2023-09-08T08:49:00;4.38;;;4.00;;
34573;SDS011;20809;49.594;8.734;2023-09-08T08:52:04;4.53;;;3.85;;
34573;SDS011;20809;49.594;8.734;2023-09-08T08:55:09;5.50;;;3.45;;
34573;SDS011;20809;49.594;8.734;2023-09-08T09:01:10;4.93;;;4.10;;
34573;SDS011;20809;49.594;8.734;2023-09-08T09:04:11;4.05;;;3.70;;
34573;SDS011;20809;49.594;8.734;2023-09-08T09:07:13;6.03;;;4.38;;
34573;SDS011;20809;49.594;8.734;2023-09-08T09:13:14;5.53;;;4.20;;
34573;SDS011;20809;49.594;8.734;2023-09-08T09:19:19;5.03;;;4.43;;
34573;SDS011;20809;49.594;8.734;2023-09-08T09:22:39;4.72;;;4.10;;
34573;SDS011;20809;49.594;8.734;2023-09-08T09:25:40;4.13;;;3.80;;
34573;SDS011;20809;49.594;8.734;2023-09-08T09:31:52;6.43;;;4.03;;
34573;SDS011;20809;49.594;8.734;2023-09-08T09:34:57;6.43;;;4.05;;
34573;SDS011;20809;49.594;8.734;2023-09-08T09:38:01;4.05;;;3.65;;
34573;SDS011;20809;49.594;8.734;2023-09-08T09:41:03;5.22;;;4.10;;
34573;SDS011;20809;49.594;8.734;2023-09-08T09:50:07;6.20;;;4.90;;
34573;SDS011;20809;49.594;8.734;2023-09-08T09:56:12;6.70;;;3.97;;
34573;SDS011;20809;49.594;8.734;2023-09-08T09:59:14;5.97;;;4.03;;
34573;SDS011;20809;49.594;8.734;2023-09-08T10:08:18;4.55;;;4.15;;
34573;SDS011;20809;49.594;8.734;2023-09-08T10:11:21;4.35;;;4.05;;
34573;SDS011;20809;49.594;8.734;2023-09-08T10:14:26;3.88;;;3.58;;
34573;SDS011;20809;49.594;8.734;2023-09-08T10:17:28;3.92;;;3.63;;
34573;SDS011;20809;49.594;8.734;2023-09-08T10:20:30;4.80;;;3.75;;
34573;SDS011;20809;49.594;8.734;2023-09-08T10:23:35;4.80;;;3.90;;
34573;SDS011;20809;49.594;8.734;2023-09-08T10:26:39;4.22;;;3.88;;
34573;SDS011;20809;49.594;8.734;2023-09-08T10:29:43;5.50;;;3.90;;
34573;SDS011;20809;49.594;8.734;2023-09-08T10:35:44;5.32;;;4.40;;
34573;SDS011;20809;49.594;8.734;2023-09-08T10:38:45;6.93;;;4.78;;
34573;SDS011;20809;49.594;8.734;2023-09-08T10:41:47;5.03;;;4.63;;
34573;SDS011;20809;49.594;8.734;2023-09-08T10:50:52;6.20;;;5.38;;
34573;SDS011;20809;49.594;8.734;2023-09-08T10:53:53;8.52;;;4.65;;
34573;SDS011;20809;49.594;8.734;2023-09-08T10:56:54;9.00;;;4.57;;
34573;SDS011;20809;49.594;8.734;2023-09-08T10:59:57;5.80;;;4.55;;
34573;SDS011;20809;49.594;8.734;2023-09-08T11:02:59;5.60;;;4.25;;
34573;SDS011;20809;49.594;8.734;2023-09-08T11:06:00;6.80;;;4.80;;
34573;SDS011;20809;49.594;8.734;2023-09-08T11:09:07;6.50;;;4.43;;
34573;SDS011;20809;49.594;8.734;2023-09-08T11:12:07;6.05;;;5.45;;
34573;SDS011;20809;49.594;8.734;2023-09-08T11:15:08;6.57;;;4.40;;
34573;SDS011;20809;49.594;8.734;2023-09-08T11:18:09;6.00;;;5.00;;
34573;SDS011;20809;49.594;8.734;2023-09-08T11:21:10;4.43;;;4.03;;
34573;SDS011;20809;49.594;8.734;2023-09-08T11:24:11;7.18;;;4.68;;
34573;SDS011;20809;49.594;8.734;2023-09-08T11:27:14;4.88;;;4.43;;
34573;SDS011;20809;49.594;8.734;2023-09-08T11:30:15;6.55;;;4.63;;
34573;SDS011;20809;49.594;8.734;2023-09-08T11:33:18;5.85;;;4.72;;
34573;SDS011;20809;49.594;8.734;2023-09-08T11:36:23;5.20;;;4.80;;
34573;SDS011;20809;49.594;8.734;2023-09-08T11:39:24;4.88;;;4.47;;
34573;SDS011;20809;49.594;8.734;2023-09-08T11:42:27;5.63;;;5.07;;
34573;SDS011;20809;49.594;8.734;2023-09-08T11:45:28;5.50;;;4.80;;
34573;SDS011;20809;49.594;8.734;2023-09-08T11:48:31;5.30;;;4.53;;
34573;SDS011;20809;49.594;8.734;2023-09-08T11:51:32;4.60;;;4.20;;
34573;SDS011;20809;49.594;8.734;2023-09-08T11:54:33;6.32;;;4.70;;
34573;SDS011;20809;49.594;8.734;2023-09-08T11:57:35;7.63;;;4.85;;
34573;SDS011;20809;49.594;8.734;2023-09-08T12:00:36;4.88;;;4.47;;
34573;SDS011;20809;49.594;8.734;2023-09-08T12:03:54;5.15;;;4.65;;
34573;SDS011;20809;49.594;8.734;2023-09-08T12:06:55;5.25;;;4.80;;
34573;SDS011;20809;49.594;8.734;2023-09-08T12:09:56;5.25;;;4.45;;
34573;SDS011;20809;49.594;8.734;2023-09-08T12:12:58;5.07;;;4.57;;
34573;SDS011;20809;49.594;8.734;2023-09-08T12:16:00;5.45;;;4.90;;
34573;SDS011;20809;49.594;8.734;2023-09-08T12:19:00;7.15;;;4.40;;
34573;SDS011;20809;49.594;8.734;2023-09-08T12:22:01;10.70;;;4.65;;
34573;SDS011;20809;49.594;8.734;2023-09-08T12:25:07;5.32;;;4.82;;
34573;SDS011;20809;49.594;8.734;2023-09-08T12:28:08;7.70;;;4.78;;
34573;SDS011;20809;49.594;8.734;2023-09-08T12:31:09;6.63;;;4.38;;
34573;SDS011;20809;49.594;8.734;2023-09-08T12:34:10;4.97;;;4.53;;
34573;SDS011;20809;49.594;8.734;2023-09-08T12:37:13;5.10;;;4.63;;
34573;SDS011;20809;49.594;8.734;2023-09-08T12:40:13;8.25;;;4.55;;
34573;SDS011;20809;49.594;8.734;2023-09-08T12:43:15;6.60;;;4.25;;
34573;SDS011;20809;49.594;8.734;2023-09-08T12:46:16;8.63;;;4.45;;
34573;SDS011;20809;49.594;8.734;2023-09-08T12:49:18;6.50;;;4.50;;
34573;SDS011;20809;49.594;8.734;2023-09-08T12:52:19;6.38;;;4.40;;
34573;SDS011;20809;49.594;8.734;2023-09-08T12:55:20;7.60;;;4.97;;
34573;SDS011;20809;49.594;8.734;2023-09-08T12:58:20;6.70;;;4.68;;
34573;SDS011;20809;49.594;8.734;2023-09-08T13:01:21;4.40;;;4.07;;
34573;SDS011;20809;49.594;8.734;2023-09-08T13:04:21;4.38;;;4.05;;
34573;SDS011;20809;49.594;8.734;2023-09-08T13:07:22;4.70;;;4.30;;
34573;SDS011;20809;49.594;8.734;2023-09-08T13:10:23;5.47;;;4.40;;
34573;SDS011;20809;49.594;8.734;2023-09-08T13:13:25;4.82;;;4.43;;
34573;SDS011;20809;49.594;8.734;2023-09-08T13:16:28;6.82;;;4.43;;
34573;SDS011;20809;49.594;8.734;2023-09-08T13:19:28;5.85;;;3.75;;
34573;SDS011;20809;49.594;8.734;2023-09-08T13:22:32;5.05;;;4.15;;
34573;SDS011;20809;49.594;8.734;2023-09-08T13:25:33;5.03;;;4.43;;
34573;SDS011;20809;49.594;8.734;2023-09-08T13:28:36;5.93;;;4.55;;
34573;SDS011;20809;49.594;8.734;2023-09-08T13:31:37;4.93;;;4.38;;
34573;SDS011;20809;49.594;8.734;2023-09-08T13:34:37;4.60;;;4.20;;
34573;SDS011;20809;49.594;8.734;2023-09-08T13:37:38;5.05;;;4.00;;
34573;SDS011;20809;49.594;8.734;2023-09-08T13:40:39;4.72;;;4.38;;
34573;SDS011;20809;49.594;8.734;2023-09-08T13:43:41;4.90;;;4.47;;
34573;SDS011;20809;49.594;8.734;2023-09-08T13:46:41;4.55;;;4.22;;
34573;SDS011;20809;49.594;8.734;2023-09-08T13:49:42;4.72;;;4.43;;
34573;SDS011;20809;49.594;8.734;2023-09-08T13:52:43;5.10;;;4.68;;
34573;SDS011;20809;49.594;8.734;2023-09-08T13:55:43;5.03;;;4.60;;
34573;SDS011;20809;49.594;8.734;2023-09-08T13:58:44;11.50;;;4.80;;
34573;SDS011;20809;49.594;8.734;2023-09-08T14:01:45;7.07;;;4.60;;
34573;SDS011;20809;49.594;8.734;2023-09-08T14:04:45;4.95;;;4.55;;
34573;SDS011;20809;49.594;8.734;2023-09-08T14:07:46;4.75;;;4.18;;
34573;SDS011;20809;49.594;8.734;2023-09-08T14:10:46;5.88;;;4.13;;
34573;SDS011;20809;49.594;8.734;2023-09-08T14:13:47;5.10;;;4.70;;
34573;SDS011;20809;49.594;8.734;2023-09-08T14:16:48;9.15;;;5.18;;
34573;SDS011;20809;49.594;8.734;2023-09-08T14:19:48;6.80;;;4.68;;
34573;SDS011;20809;49.594;8.734;2023-09-08T14:22:49;4.90;;;4.50;;
34573;SDS011;20809;49.594;8.734;2023-09-08T14:25:49;4.38;;;4.07;;
34573;SDS011;20809;49.594;8.734;2023-09-08T14:28:50;4.78;;;4.35;;
34573;SDS011;20809;49.594;8.734;2023-09-08T14:31:51;5.07;;;4.40;;
34573;SDS011;20809;49.594;8.734;2023-09-08T14:34:51;4.05;;;3.85;;
34573;SDS011;20809;49.594;8.734;2023-09-08T14:37:52;4.65;;;4.25;;
34573;SDS011;20809;49.594;8.734;2023-09-08T14:41:00;6.10;;;4.00;;
34573;SDS011;20809;49.594;8.734;2023-09-08T14:44:01;5.40;;;4.45;;
34573;SDS011;20809;49.594;8.734;2023-09-08T14:47:02;5.93;;;3.92;;
34573;SDS011;20809;49.594;8.734;2023-09-08T14:50:03;4.22;;;3.92;;
34573;SDS011;20809;49.594;8.734;2023-09-08T14:53:04;4.97;;;4.30;;
34573;SDS011;20809;49.594;8.734;2023-09-08T14:56:06;8.32;;;4.22;;
34573;SDS011;20809;49.594;8.734;2023-09-08T14:59:08;4.45;;;4.15;;
34573;SDS011;20809;49.594;8.734;2023-09-08T15:02:08;5.65;;;4.40;;
34573;SDS011;20809;49.594;8.734;2023-09-08T15:05:09;4.53;;;4.13;;
34573;SDS011;20809;49.594;8.734;2023-09-08T15:08:10;5.50;;;4.40;;
34573;SDS011;20809;49.594;8.734;2023-09-08T15:11:12;4.43;;;3.70;;
34573;SDS011;20809;49.594;8.734;2023-09-08T15:14:12;4.40;;;4.00;;
34573;SDS011;20809;49.594;8.734;2023-09-08T15:17:13;5.95;;;4.88;;
34573;SDS011;20809;49.594;8.734;2023-09-08T15:20:14;4.55;;;4.05;;
34573;SDS011;20809;49.594;8.734;2023-09-08T15:23:14;4.82;;;4.28;;
34573;SDS011;20809;49.594;8.734;2023-09-08T15:26:15;4.55;;;4.15;;
34573;SDS011;20809;49.594;8.734;2023-09-08T15:29:16;4.72;;;4.30;;
34573;SDS011;20809;49.594;8.734;2023-09-08T15:32:17;4.72;;;4.32;;
34573;SDS011;20809;49.594;8.734;2023-09-08T15:35:18;4.63;;;4.30;;
34573;SDS011;20809;49.594;8.734;2023-09-08T15:38:18;4.93;;;4.63;;
34573;SDS011;20809;49.594;8.734;2023-09-08T15:41:20;5.75;;;4.47;;
34573;SDS011;20809;49.594;8.734;2023-09-08T15:44:20;4.88;;;4.40;;
34573;SDS011;20809;49.594;8.734;2023-09-08T15:47:21;5.13;;;4.72;;
34573;SDS011;20809;49.594;8.734;2023-09-08T15:50:28;5.47;;;4.93;;
34573;SDS011;20809;49.594;8.734;2023-09-08T15:53:28;6.28;;;4.30;;
34573;SDS011;20809;49.594;8.734;2023-09-08T15:56:29;5.40;;;4.72;;
34573;SDS011;20809;49.594;8.734;2023-09-08T15:59:30;8.98;;;7.93;;
34573;SDS011;20809;49.594;8.734;2023-09-08T16:02:30;6.88;;;5.57;;
34573;SDS011;20809;49.594;8.734;2023-09-08T16:05:31;4.35;;;3.95;;
34573;SDS011;20809;49.594;8.734;2023-09-08T16:08:31;6.30;;;4.60;;
34573;SDS011;20809;49.594;8.734;2023-09-08T16:11:32;4.85;;;4.47;;
34573;SDS011;20809;49.594;8.734;2023-09-08T16:14:33;4.60;;;4.20;;
34573;SDS011;20809;49.594;8.734;2023-09-08T16:17:35;4.75;;;4.35;;
34573;SDS011;20809;49.594;8.734;2023-09-08T16:20:35;9.70;;;8.80;;
34573;SDS011;20809;49.594;8.734;2023-09-08T16:23:38;9.32;;;8.50;;
34573;SDS011;20809;49.594;8.734;2023-09-08T16:26:38;6.07;;;5.57;;
34573;SDS011;20809;49.594;8.734;2023-09-08T16:29:39;7.30;;;4.90;;
34573;SDS011;20809;49.594;8.734;2023-09-08T16:32:39;5.43;;;4.65;;
34573;SDS011;20809;49.594;8.734;2023-09-08T16:35:40;4.72;;;4.32;;
34573;SDS011;20809;49.594;8.734;2023-09-08T16:38:41;4.75;;;4.35;;
34573;SDS011;20809;49.594;8.734;2023-09-08T16:41:42;7.50;;;4.75;;
34573;SDS011;20809;49.594;8.734;2023-09-08T16:44:42;5.35;;;4.95;;
34573;SDS011;20809;49.594;8.734;2023-09-08T16:47:46;5.50;;;4.72;;
34573;SDS011;20809;49.594;8.734;2023-09-08T16:50:50;5.60;;;5.20;;
34573;SDS011;20809;49.594;8.734;2023-09-08T16:53:51;6.65;;;4.50;;
34573;SDS011;20809;49.594;8.734;2023-09-08T16:56:51;5.15;;;4.68;;
34573;SDS011;20809;49.594;8.734;2023-09-08T16:59:52;4.55;;;4.15;;
34573;SDS011;20809;49.594;8.734;2023-09-08T17:02:52;8.95;;;4.93;;
34573;SDS011;20809;49.594;8.734;2023-09-08T17:05:53;4.60;;;4.22;;
34573;SDS011;20809;49.594;8.734;2023-09-08T17:08:54;6.72;;;4.60;;
34573;SDS011;20809;49.594;8.734;2023-09-08T17:11:55;5.13;;;4.57;;
34573;SDS011;20809;49.594;8.734;2023-09-08T17:14:55;7.07;;;4.80;;
34573;SDS011;20809;49.594;8.734;2023-09-08T17:17:56;6.20;;;4.85;;
34573;SDS011;20809;49.594;8.734;2023-09-08T17:20:57;5.20;;;4.75;;
34573;SDS011;20809;49.594;8.734;2023-09-08T17:23:58;5.03;;;4.63;;
34573;SDS011;20809;49.594;8.734;2023-09-08T17:26:58;5.82;;;5.22;;
34573;SDS011;20809;49.594;8.734;2023-09-08T17:29:59;8.15;;;7.28;;
34573;SDS011;20809;49.594;8.734;2023-09-08T17:33:00;6.63;;;5.95;;
34573;SDS011;20809;49.594;8.734;2023-09-08T17:36:01;6.15;;;5.05;;
34573;SDS011;20809;49.594;8.734;2023-09-08T17:39:01;6.55;;;5.25;;
34573;SDS011;20809;49.594;8.734;2023-09-08T17:42:02;5.80;;;5.28;;
34573;SDS011;20809;49.594;8.734;2023-09-08T17:45:03;9.82;;;5.03;;
34573;SDS011;20809;49.594;8.734;2023-09-08T17:48:04;5.32;;;4.82;;
34573;SDS011;20809;49.594;8.734;2023-09-08T17:54:06;6.07;;;4.67;;
34573;SDS011;20809;49.594;8.734;2023-09-08T18:00:07;6.03;;;5.43;;
34573;SDS011;20809;49.594;8.734;2023-09-08T18:06:08;13.37;;;8.63;;
34573;SDS011;20809;49.594;8.734;2023-09-08T18:12:10;9.60;;;5.73;;
34573;SDS011;20809;49.594;8.734;2023-09-08T18:18:11;5.67;;;5.10;;
34573;SDS011;20809;49.594;8.734;2023-09-08T18:21:11;5.90;;;5.40;;
34573;SDS011;20809;49.594;8.734;2023-09-08T18:27:15;8.73;;;6.00;;
34573;SDS011;20809;49.594;8.734;2023-09-08T18:30:16;6.15;;;5.60;;
34573;SDS011;20809;49.594;8.734;2023-09-08T18:33:16;10.43;;;6.05;;
34573;SDS011;20809;49.594;8.734;2023-09-08T18:36:17;8.43;;;6.13;;
34573;SDS011;20809;49.594;8.734;2023-09-08T18:39:17;10.75;;;6.70;;
34573;SDS011;20809;49.594;8.734;2023-09-08T18:42:18;6.95;;;5.25;;
34573;SDS011;20809;49.594;8.734;2023-09-08T18:45:19;6.05;;;5.45;;
34573;SDS011;20809;49.594;8.734;2023-09-08T18:48:19;6.15;;;5.55;;
34573;SDS011;20809;49.594;8.734;2023-09-08T18:54:21;8.33;;;6.10;;
34573;SDS011;20809;49.594;8.734;2023-09-08T18:57:27;7.38;;;5.65;;
34573;SDS011;20809;49.594;8.734;2023-09-08T19:00:29;6.53;;;5.38;;
34573;SDS011;20809;49.594;8.734;2023-09-08T19:03:30;6.65;;;5.93;;
34573;SDS011;20809;49.594;8.734;2023-09-08T19:06:31;7.50;;;6.38;;
34573;SDS011;20809;49.594;8.734;2023-09-08T19:09:32;9.10;;;7.13;;
34573;SDS011;20809;49.594;8.734;2023-09-08T19:12:32;9.93;;;7.75;;
34573;SDS011;20809;49.594;8.734;2023-09-08T19:15:33;6.53;;;5.93;;
34573;SDS011;20809;49.594;8.734;2023-09-08T19:18:34;7.07;;;6.38;;
34573;SDS011;20809;49.594;8.734;2023-09-08T19:21:34;8.05;;;6.00;;
34573;SDS011;20809;49.594;8.734;2023-09-08T19:24:35;5.97;;;5.40;;
34573;SDS011;20809;49.594;8.734;2023-09-08T19:27:36;7.55;;;6.43;;
34573;SDS011;20809;49.594;8.734;2023-09-08T19:30:36;6.65;;;5.97;;
34573;SDS011;20809;49.594;8.734;2023-09-08T19:33:37;7.85;;;6.82;;
34573;SDS011;20809;49.594;8.734;2023-09-08T19:36:38;7.32;;;6.60;;
34573;SDS011;20809;49.594;8.734;2023-09-08T19:39:39;7.70;;;6.57;;
34573;SDS011;20809;49.594;8.734;2023-09-08T19:42:40;8.70;;;6.18;;
34573;SDS011;20809;49.594;8.734;2023-09-08T19:45:40;7.25;;;6.55;;